EDLN/MGL METAR and TAF weather

Enter ICAO airport designator
Station Type Date Time Source
EDLN METAR 2021/05/15 22:20 UTC NOAA

EDLN 152220Z AUTO 20005KT 170V230 9999 // NCD 10/08 Q1001


Station Type Date Time Source
EDLN Decoded METAR 2021/05/15 22:20 UTC NOAA

Monchengladbach, Germany (EDLN) 51-13-49N 006-30-16E
May 15, 2021 - 06:20 PM EDT / 2021.05.15 2220 UTC
Wind: from the SSW (200 degrees) at 6 MPH (5 KT) (direction variable):0
Visibility: greater than 7 mile(s):0
Temperature: 50 F (10 C)
Dew Point: 46 F (8 C)
Relative Humidity: 87%
Pressure (altimeter): 29.56 in. Hg (1001 hPa)
ob: EDLN 152220Z AUTO 20005KT 170V230 9999 // NCD 10/08 Q1001
cycle: 22

Station Type Date Time Source
EDLN TAF 2010/02/22 14:20 UTC NOAA

METAR EDLN 221420Z 18010G20KT 090V240 9999 SCT030 BKN045 11/06 Q0986
RMK ATIS R=

Example: see airport list